createdAt,value
2023-07-14T00:00:52.367Z,0
2023-07-14T00:02:32.110Z,0
2023-07-14T00:04:11.879Z,0
2023-07-14T00:05:51.647Z,0
2023-07-14T00:07:31.425Z,0
2023-07-14T00:09:11.179Z,0
2023-07-14T00:10:50.964Z,0
2023-07-14T00:12:30.712Z,0
2023-07-14T00:14:10.486Z,0
2023-07-14T00:15:50.235Z,0
2023-07-14T00:17:30.002Z,0
2023-07-14T00:19:09.757Z,0
2023-07-14T00:20:49.517Z,0
2023-07-14T00:22:29.297Z,0
2023-07-14T00:24:09.063Z,0
2023-07-14T00:25:48.849Z,0
2023-07-14T00:27:28.573Z,0
2023-07-14T00:29:08.342Z,0
2023-07-14T00:30:48.106Z,0
2023-07-14T00:32:27.887Z,0
2023-07-14T00:34:07.653Z,0
2023-07-14T00:35:47.411Z,0
2023-07-14T00:37:27.173Z,0
2023-07-14T00:39:06.943Z,0
2023-07-14T00:40:46.695Z,0
2023-07-14T00:42:26.507Z,0
2023-07-14T00:44:06.218Z,0
2023-07-14T00:45:45.979Z,0
2023-07-14T00:47:25.755Z,0
2023-07-14T00:49:05.527Z,0
2023-07-14T00:50:45.280Z,0
2023-07-14T00:52:25.050Z,0
2023-07-14T00:54:04.849Z,0
2023-07-14T00:55:44.567Z,0
2023-07-14T00:57:24.330Z,0
2023-07-14T00:59:04.104Z,0
2023-07-14T01:00:43.892Z,0
2023-07-14T01:02:23.618Z,0
2023-07-14T01:04:03.390Z,0
2023-07-14T01:07:22.927Z,0
2023-07-14T01:09:02.704Z,0
2023-07-14T01:10:42.442Z,0
2023-07-14T01:12:22.204Z,0
2023-07-14T01:14:01.995Z,0
2023-07-14T01:15:41.738Z,0
2023-07-14T01:17:21.508Z,0
2023-07-14T01:19:01.272Z,0
2023-07-14T01:20:41.065Z,0
2023-07-14T01:22:20.801Z,0
2023-07-14T01:24:00.562Z,0
2023-07-14T01:25:40.320Z,0
2023-07-14T01:27:20.112Z,0
2023-07-14T01:28:59.865Z,0
2023-07-14T01:30:39.622Z,0
2023-07-14T01:32:19.382Z,0
2023-07-14T01:33:59.149Z,0
2023-07-14T01:35:38.891Z,0
2023-07-14T01:37:18.674Z,0
2023-07-14T01:38:58.435Z,0
2023-07-14T01:40:38.214Z,0
2023-07-14T01:42:17.986Z,0
2023-07-14T01:43:57.727Z,0
2023-07-14T01:47:17.248Z,0
2023-07-14T01:48:57.014Z,0
2023-07-14T01:50:36.789Z,0
2023-07-14T01:52:16.541Z,0
2023-07-14T01:53:56.307Z,0
2023-07-14T01:57:15.837Z,0
2023-07-14T01:58:55.603Z,0
2023-07-14T02:00:35.365Z,0
2023-07-14T02:02:15.140Z,0
2023-07-14T02:03:54.899Z,0
2023-07-14T02:07:14.409Z,0
2023-07-14T02:08:54.179Z,0
2023-07-14T02:10:33.947Z,0
2023-07-14T02:12:13.704Z,0
2023-07-14T02:13:53.477Z,0
2023-07-14T02:15:33.227Z,0
2023-07-14T02:17:13.010Z,0
2023-07-14T02:18:52.782Z,0
2023-07-14T02:20:32.555Z,0
2023-07-14T02:22:12.306Z,0
2023-07-14T02:23:52.063Z,0
2023-07-14T02:25:31.841Z,0
2023-07-14T02:27:11.594Z,0
2023-07-14T02:28:51.347Z,0
2023-07-14T02:30:31.105Z,0
2023-07-14T02:32:10.880Z,0
2023-07-14T02:33:50.635Z,0
2023-07-14T02:35:30.399Z,0
2023-07-14T02:37:10.177Z,0
2023-07-14T02:38:49.922Z,0
2023-07-14T02:40:29.684Z,0
2023-07-14T02:42:09.469Z,0
2023-07-14T02:43:49.222Z,0
2023-07-14T02:45:28.985Z,0
2023-07-14T02:47:08.769Z,0
2023-07-14T02:48:48.520Z,0
2023-07-14T02:50:28.296Z,0
2023-07-14T02:52:08.053Z,0
2023-07-14T02:53:47.809Z,0
2023-07-14T02:57:07.333Z,0
2023-07-14T02:58:47.129Z,0
2023-07-14T03:00:26.884Z,0
2023-07-14T03:02:06.631Z,0
2023-07-14T03:03:46.395Z,0
2023-07-14T03:05:26.211Z,0
2023-07-14T03:07:05.930Z,0
2023-07-14T03:08:45.692Z,0
2023-07-14T03:10:25.458Z,0
2023-07-14T03:12:05.216Z,0
2023-07-14T03:13:44.999Z,0
2023-07-14T03:15:24.742Z,0
2023-07-14T03:17:04.513Z,0
2023-07-14T03:18:44.278Z,0.12
2023-07-14T03:20:24.022Z,0.25
2023-07-14T03:22:03.806Z,0.38
2023-07-14T03:23:43.574Z,0.38
2023-07-14T03:27:03.095Z,0.38
2023-07-14T03:28:42.848Z,0.64
2023-07-14T03:30:22.623Z,0.51
2023-07-14T03:32:02.401Z,0.51
2023-07-14T03:33:42.141Z,0.51
2023-07-14T03:37:01.666Z,0.52
2023-07-14T03:38:41.445Z,0.52
2023-07-14T03:40:21.199Z,0.51
2023-07-14T03:42:00.964Z,0.65
2023-07-14T03:43:40.722Z,0.65
2023-07-14T03:47:00.268Z,0.78
2023-07-14T03:48:40.015Z,0.78
2023-07-14T03:50:19.789Z,0.78
2023-07-14T03:51:59.550Z,0.91
2023-07-14T03:53:39.312Z,1.04
2023-07-14T03:55:19.083Z,1.17
2023-07-14T03:56:58.829Z,1.17
2023-07-14T03:58:38.605Z,1.32
2023-07-14T04:00:18.363Z,1.32
2023-07-14T04:01:58.119Z,1.33
2023-07-14T04:03:37.900Z,1.33
2023-07-14T04:06:57.438Z,1.34
2023-07-14T04:08:37.198Z,1.47
2023-07-14T04:10:16.950Z,1.48
2023-07-14T04:11:56.719Z,1.61
2023-07-14T04:13:36.497Z,2.17
2023-07-14T04:16:56.001Z,1.63
2023-07-14T04:18:35.779Z,1.76
2023-07-14T04:20:15.540Z,1.77
2023-07-14T04:21:55.305Z,1.77
2023-07-14T04:23:35.064Z,1.77
2023-07-14T04:25:14.831Z,1.77
2023-07-14T04:26:54.590Z,1.77
2023-07-14T04:28:34.351Z,1.91
2023-07-14T04:30:14.117Z,2.05
2023-07-14T04:31:53.899Z,1.91
2023-07-14T04:33:33.645Z,2.05
2023-07-14T04:35:13.414Z,2.05
2023-07-14T04:36:53.180Z,2.05
2023-07-14T04:38:32.938Z,2.05
2023-07-14T04:40:12.705Z,2.19
2023-07-14T04:41:52.463Z,2.19
2023-07-14T04:43:32.232Z,2.2
2023-07-14T04:45:12.014Z,2.33
2023-07-14T04:46:51.779Z,2.33
2023-07-14T04:48:31.512Z,2.33
2023-07-14T04:50:11.294Z,2.48
2023-07-14T04:51:51.057Z,2.34
2023-07-14T04:53:30.817Z,2.33
2023-07-14T04:55:10.583Z,2.49
2023-07-14T04:56:50.342Z,2.62
2023-07-14T04:58:30.123Z,2.62
2023-07-14T05:00:09.876Z,2.77
2023-07-14T05:01:49.651Z,2.64
2023-07-14T05:03:29.398Z,2.77
2023-07-14T05:05:09.176Z,2.78
2023-07-14T05:06:48.951Z,2.78
2023-07-14T05:08:28.688Z,2.92
2023-07-14T05:10:08.446Z,2.92
2023-07-14T05:11:48.233Z,2.92
2023-07-14T05:13:27.993Z,6.23
2023-07-14T05:15:07.827Z,3.09
2023-07-14T05:16:47.538Z,3.09
2023-07-14T05:18:27.298Z,3.23
2023-07-14T05:20:07.054Z,3.22
2023-07-14T05:21:46.819Z,3.23
2023-07-14T05:23:26.574Z,3.38
2023-07-14T05:25:06.338Z,3.38
2023-07-14T05:26:46.125Z,3.38
2023-07-14T05:28:25.853Z,3.38
2023-07-14T05:30:05.652Z,3.53
2023-07-14T05:31:45.395Z,3.54
2023-07-14T05:33:25.164Z,3.54
2023-07-14T05:35:04.937Z,3.68
2023-07-14T05:36:44.676Z,3.69
2023-07-14T05:38:24.451Z,3.83
2023-07-14T05:40:04.219Z,3.84
2023-07-14T05:41:43.976Z,3.84
2023-07-14T05:43:23.739Z,3.85
2023-07-14T05:45:03.496Z,3.99
2023-07-14T05:46:43.272Z,4.14
2023-07-14T05:48:23.024Z,4.15
2023-07-14T05:50:02.795Z,4.16
2023-07-14T05:51:42.549Z,4.31
2023-07-14T05:53:22.318Z,4.33
2023-07-14T05:55:02.107Z,4.35
2023-07-14T05:56:41.834Z,4.84
2023-07-14T05:58:21.631Z,5.33
2023-07-14T06:00:01.373Z,4.52
2023-07-14T06:01:41.148Z,4.38
2023-07-14T06:03:20.905Z,4.38
2023-07-14T06:05:00.680Z,4.38
2023-07-14T06:06:40.440Z,4.38
2023-07-14T06:08:20.188Z,4.38
2023-07-14T06:09:59.963Z,4.21
2023-07-14T06:11:39.726Z,4.23
2023-07-14T06:13:19.517Z,4.23
2023-07-14T06:14:59.256Z,4.23
2023-07-14T06:16:39.016Z,4.08
2023-07-14T06:18:18.795Z,4.09
2023-07-14T06:19:58.540Z,4.09
2023-07-14T06:21:38.318Z,4.08
2023-07-14T06:23:18.079Z,4.09
2023-07-14T06:24:57.830Z,4.09
2023-07-14T06:26:37.598Z,3.92
2023-07-14T06:28:17.359Z,3.93
2023-07-14T06:29:57.131Z,3.78
2023-07-14T06:31:36.897Z,3.93
2023-07-14T06:33:16.661Z,3.93
2023-07-14T06:34:56.408Z,3.94
2023-07-14T06:36:36.175Z,3.79
2023-07-14T06:38:15.946Z,3.79
2023-07-14T06:39:55.706Z,3.79
2023-07-14T06:41:35.469Z,3.79
2023-07-14T06:43:15.253Z,3.94
2023-07-14T06:44:54.993Z,3.8
2023-07-14T06:46:34.767Z,3.64
2023-07-14T06:48:14.541Z,3.64
2023-07-14T06:49:54.285Z,3.78
2023-07-14T06:51:34.060Z,3.64
2023-07-14T06:53:13.853Z,3.63
2023-07-14T06:54:53.574Z,3.65
2023-07-14T06:56:33.384Z,3.65
2023-07-14T06:58:13.234Z,3.64
2023-07-14T06:59:52.881Z,3.48
2023-07-14T07:01:32.653Z,3.48
2023-07-14T07:03:12.416Z,3.47
2023-07-14T07:04:52.186Z,3.48
2023-07-14T07:06:31.939Z,3.33
2023-07-14T07:08:11.692Z,3.33
2023-07-14T07:09:51.470Z,3.47
2023-07-14T07:11:31.223Z,3.33
2023-07-14T07:13:10.988Z,3.33
2023-07-14T07:14:50.755Z,3.33
2023-07-14T07:16:30.512Z,3.33
2023-07-14T07:18:10.283Z,3.33
2023-07-14T07:19:50.059Z,3.18
2023-07-14T07:21:29.846Z,3.33
2023-07-14T07:23:09.560Z,3.34
2023-07-14T07:24:49.337Z,3.34
2023-07-14T07:26:29.098Z,3.34
2023-07-14T07:28:08.877Z,3.19
2023-07-14T07:29:48.695Z,3.2
2023-07-14T07:31:28.377Z,3.19
2023-07-14T07:33:08.160Z,3.2
2023-07-14T07:34:47.973Z,3.33
2023-07-14T07:36:27.696Z,3.19
2023-07-14T07:38:07.460Z,3.18
2023-07-14T07:39:47.214Z,3.18
2023-07-14T07:41:26.992Z,3.18
2023-07-14T07:43:06.736Z,3.19
2023-07-14T07:44:46.512Z,3.19
2023-07-14T07:46:26.287Z,3.19
2023-07-14T07:48:06.040Z,3.18
2023-07-14T07:49:45.798Z,3.04
2023-07-14T07:51:26.541Z,3.05
2023-07-14T07:53:05.381Z,3.03
2023-07-14T07:56:24.902Z,0.28
2023-07-14T07:58:04.621Z,0.27
2023-07-14T07:59:44.385Z,0.13
2023-07-14T08:01:24.147Z,0.68
2023-07-14T08:03:03.912Z,1.8
2023-07-14T08:04:43.688Z,1.8
2023-07-14T08:06:23.448Z,1.95
2023-07-14T08:08:03.198Z,1.95
2023-07-14T08:09:42.967Z,1.39
2023-07-14T08:11:22.735Z,1.39
2023-07-14T08:13:02.491Z,1.39
2023-07-14T08:14:42.251Z,1.53
2023-07-14T08:16:22.047Z,1.53
2023-07-14T08:18:01.789Z,1.52
2023-07-14T08:19:41.548Z,1.67
2023-07-14T08:21:21.346Z,1.53
2023-07-14T08:23:01.079Z,1.39
2023-07-14T08:26:20.612Z,1.66
2023-07-14T08:28:00.379Z,1.53
2023-07-14T08:29:40.132Z,1.67
2023-07-14T08:31:19.916Z,1.67
2023-07-14T08:32:59.658Z,1.53
2023-07-14T08:34:39.415Z,1.53
2023-07-14T08:36:19.199Z,1.53
2023-07-14T08:37:58.960Z,1.39
2023-07-14T08:39:38.779Z,1.52
2023-07-14T08:41:18.474Z,1.52
2023-07-14T08:42:58.252Z,1.66
2023-07-14T08:44:38.005Z,1.53
2023-07-14T08:46:17.777Z,1.53
2023-07-14T08:47:57.533Z,1.52
2023-07-14T08:49:37.308Z,1.52
2023-07-14T08:51:17.072Z,1.53
2023-07-14T08:52:56.830Z,1.52
2023-07-14T08:56:16.389Z,1.52
2023-07-14T08:57:56.133Z,1.52
2023-07-14T08:59:35.892Z,1.52
2023-07-14T09:01:15.653Z,1.53
2023-07-14T09:02:55.422Z,1.53
2023-07-14T09:04:35.181Z,1.52
2023-07-14T09:06:14.952Z,1.53
2023-07-14T09:09:34.486Z,1.53
2023-07-14T09:11:14.241Z,1.53
2023-07-14T09:12:54.017Z,1.52
2023-07-14T09:14:33.769Z,1.52
2023-07-14T09:16:13.533Z,1.52
2023-07-14T09:19:33.055Z,1.24
2023-07-14T09:21:12.838Z,1.38
2023-07-14T09:22:52.604Z,1.66
2023-07-14T09:24:32.381Z,1.66
2023-07-14T09:26:12.111Z,1.52
2023-07-14T09:27:51.922Z,1.52
2023-07-14T09:29:31.648Z,1.66
2023-07-14T09:31:11.437Z,1.52
2023-07-14T09:32:51.166Z,1.52
2023-07-14T09:34:30.928Z,1.52
2023-07-14T09:36:10.721Z,1.38
2023-07-14T09:37:50.467Z,1.52
2023-07-14T09:39:30.231Z,1.1
2023-07-14T09:41:09.987Z,1.1
2023-07-14T09:42:49.770Z,1.66
2023-07-14T09:44:29.510Z,1.52
2023-07-14T09:46:09.286Z,1.52
2023-07-14T09:47:49.061Z,1.66
2023-07-14T09:49:28.822Z,1.52
2023-07-14T09:51:08.585Z,1.52
2023-07-14T09:52:48.343Z,1.52
2023-07-14T09:54:28.108Z,1.52
2023-07-14T09:56:07.875Z,1.66
2023-07-14T09:57:47.639Z,1.52
2023-07-14T09:59:27.449Z,1.52
2023-07-14T10:01:07.161Z,1.38
2023-07-14T10:02:46.985Z,1.52
2023-07-14T10:04:26.745Z,1.79
2023-07-14T10:06:06.529Z,1.66
2023-07-14T10:07:46.217Z,1.52
2023-07-14T10:09:26.020Z,1.66
2023-07-14T10:11:05.762Z,1.66
2023-07-14T10:12:45.517Z,1.66
2023-07-14T10:14:25.311Z,1.66
2023-07-14T10:16:05.043Z,1.66
2023-07-14T10:19:24.581Z,1.66
2023-07-14T10:24:23.897Z,1.38
2023-07-14T10:26:03.634Z,1.52
2023-07-14T10:27:43.392Z,1.65
2023-07-14T10:29:23.168Z,1.38
2023-07-14T10:31:02.935Z,1.52
2023-07-14T10:32:42.680Z,1.52
2023-07-14T10:36:02.230Z,1.51
2023-07-14T10:37:41.993Z,1.52
2023-07-14T10:39:21.743Z,1.51
2023-07-14T10:41:01.509Z,1.51
2023-07-14T10:42:41.284Z,1.23
2023-07-14T10:44:21.034Z,1.23
2023-07-14T10:46:00.838Z,1.79
2023-07-14T10:47:40.571Z,1.79
2023-07-14T10:49:20.330Z,1.66
2023-07-14T10:51:00.101Z,1.66
2023-07-14T10:52:39.856Z,1.66
2023-07-14T10:54:19.652Z,1.52
2023-07-14T10:55:59.383Z,1.51
2023-07-14T10:57:39.146Z,1.1
2023-07-14T10:59:18.910Z,1.23
2023-07-14T11:02:38.457Z,1.79
2023-07-14T11:05:57.963Z,1.93
2023-07-14T11:07:37.724Z,1.93
2023-07-14T11:09:17.492Z,1.52
2023-07-14T11:10:57.340Z,1.52
2023-07-14T11:12:37.043Z,1.66
2023-07-14T11:14:16.813Z,1.23
2023-07-14T11:15:56.600Z,1.37
2023-07-14T11:19:16.088Z,1.38
2023-07-14T11:20:55.844Z,1.51
2023-07-14T11:22:35.614Z,1.09
2023-07-14T11:25:55.148Z,1.65
2023-07-14T11:27:34.919Z,1.92
2023-07-14T11:29:14.673Z,1.38
2023-07-14T11:30:54.454Z,1.24
2023-07-14T11:32:34.210Z,1.65
2023-07-14T11:34:13.974Z,1.51
2023-07-14T11:35:53.728Z,1.65
2023-07-14T11:37:33.506Z,1.37
2023-07-14T11:39:13.304Z,1.23
2023-07-14T11:40:53.021Z,1.78
2023-07-14T11:42:32.804Z,1.79
2023-07-14T11:44:12.570Z,1.79
2023-07-14T11:45:52.312Z,1.65
2023-07-14T11:47:32.097Z,1.51
2023-07-14T11:49:11.858Z,1.51
2023-07-14T11:50:51.618Z,1.37
2023-07-14T11:52:31.388Z,1.37
2023-07-14T11:54:11.140Z,1.37
2023-07-14T11:55:50.908Z,1.37
2023-07-14T11:57:30.702Z,1.78
2023-07-14T11:59:10.446Z,1.52
2023-07-14T12:00:50.202Z,1.51
2023-07-14T12:02:29.974Z,1.23
2023-07-14T12:05:49.495Z,1.51
2023-07-14T12:07:29.254Z,1.51
2023-07-14T12:09:09.017Z,1.23
2023-07-14T12:10:48.785Z,1.5
2023-07-14T12:12:28.553Z,1.65
2023-07-14T12:14:08.307Z,1.37
2023-07-14T12:15:48.074Z,1.37
2023-07-14T12:17:27.854Z,1.37
2023-07-14T12:19:07.599Z,1.37
2023-07-14T12:20:47.378Z,2.06
2023-07-14T12:22:27.149Z,1.23
2023-07-14T12:24:06.918Z,1.36
2023-07-14T12:25:46.659Z,1.65
2023-07-14T12:27:26.432Z,1.37
2023-07-14T12:29:06.241Z,1.37
2023-07-14T12:30:45.970Z,1.51
2023-07-14T12:32:25.727Z,1.37
2023-07-14T12:34:05.489Z,1.37
2023-07-14T12:35:45.251Z,1.37
2023-07-14T12:37:25.059Z,1.37
2023-07-14T12:39:04.793Z,1.5
2023-07-14T12:40:44.553Z,1.37
2023-07-14T12:42:24.322Z,1.37
2023-07-14T12:45:43.848Z,1.37
2023-07-14T12:49:03.368Z,1.36
2023-07-14T12:50:43.157Z,1.37
2023-07-14T12:52:22.945Z,1.64
2023-07-14T12:54:02.669Z,1.37
2023-07-14T12:55:42.453Z,1.51
2023-07-14T12:57:22.203Z,1.37
2023-07-14T12:59:01.952Z,1.36
2023-07-14T13:00:41.721Z,1.37
2023-07-14T13:02:21.526Z,1.51
2023-07-14T13:05:41.026Z,1.23
2023-07-14T13:07:20.777Z,1.52
2023-07-14T13:09:00.602Z,1.37
2023-07-14T13:10:40.323Z,1.37
2023-07-14T13:12:20.078Z,1.37
2023-07-14T13:13:59.825Z,1.23
2023-07-14T13:15:39.587Z,1.51
2023-07-14T13:17:19.365Z,1.51
2023-07-14T13:18:59.140Z,1.23
2023-07-14T13:20:38.887Z,1.5
2023-07-14T13:22:18.682Z,1.5
2023-07-14T13:23:58.408Z,1.52
2023-07-14T13:25:38.228Z,1.37
2023-07-14T13:27:17.949Z,1.36
2023-07-14T13:28:57.708Z,1.36
2023-07-14T13:30:37.468Z,1.5
2023-07-14T13:32:17.247Z,1.51
2023-07-14T13:35:36.764Z,1.36
2023-07-14T13:37:16.525Z,1.36
2023-07-14T13:38:56.301Z,1.36
2023-07-14T13:40:36.064Z,1.36
2023-07-14T13:42:15.844Z,1.51
2023-07-14T13:45:35.360Z,1.36
2023-07-14T13:47:15.177Z,1.5
2023-07-14T13:48:54.890Z,1.52
2023-07-14T13:50:34.661Z,1.37
2023-07-14T13:52:14.427Z,1.36
2023-07-14T13:53:54.198Z,1.51
2023-07-14T13:55:33.940Z,1.37
2023-07-14T13:57:13.721Z,1.37
2023-07-14T13:58:53.469Z,1.36
2023-07-14T14:00:33.279Z,1.52
2023-07-14T14:02:13.040Z,1.37
2023-07-14T14:03:52.771Z,1.36
2023-07-14T14:05:32.542Z,1.5
2023-07-14T14:07:12.295Z,1.37
2023-07-14T14:08:52.053Z,1.37
2023-07-14T14:10:31.840Z,1.37
2023-07-14T14:12:11.634Z,1.37
2023-07-14T14:13:51.361Z,1.23
2023-07-14T14:15:31.116Z,1.37
2023-07-14T14:17:10.876Z,1.64
2023-07-14T14:18:50.645Z,1.37
2023-07-14T14:20:30.404Z,1.36
2023-07-14T14:22:10.182Z,1.23
2023-07-14T14:25:29.693Z,1.37
2023-07-14T14:27:09.454Z,1.37
2023-07-14T14:28:49.234Z,1.36
2023-07-14T14:30:28.999Z,1.37
2023-07-14T14:32:08.748Z,1.36
2023-07-14T14:35:28.289Z,1.22
2023-07-14T14:37:08.044Z,1.36
2023-07-14T14:38:47.801Z,1.37
2023-07-14T14:40:27.582Z,1.37
2023-07-14T14:42:07.495Z,1.36
2023-07-14T14:45:26.935Z,1.23
2023-07-14T14:47:06.720Z,1.36
2023-07-14T14:48:46.450Z,1.37
2023-07-14T14:50:26.236Z,1.23
2023-07-14T14:52:05.972Z,1.36
2023-07-14T14:55:25.553Z,1.37
2023-07-14T14:57:05.209Z,1.22
2023-07-14T14:58:44.980Z,1.51
2023-07-14T15:00:24.748Z,1.64
2023-07-14T15:02:04.509Z,1.23
2023-07-14T15:03:44.282Z,1.5
2023-07-14T15:05:24.071Z,1.36
2023-07-14T15:07:03.813Z,1.37
2023-07-14T15:08:43.583Z,1.5
2023-07-14T15:10:23.328Z,1.36
2023-07-14T15:12:03.161Z,1.23
2023-07-14T15:13:42.882Z,1.37
2023-07-14T15:15:22.619Z,1.36
2023-07-14T15:17:02.444Z,1.23
2023-07-14T15:18:42.148Z,1.37
2023-07-14T15:20:21.926Z,1.23
2023-07-14T15:22:01.694Z,1.37
2023-07-14T15:25:21.207Z,1.37
2023-07-14T15:27:00.967Z,1.37
2023-07-14T15:28:40.758Z,1.23
2023-07-14T15:30:20.564Z,1.5
2023-07-14T15:32:00.269Z,1.36
2023-07-14T15:35:19.795Z,1.37
2023-07-14T15:36:59.604Z,1.36
2023-07-14T15:38:39.373Z,1.5
2023-07-14T15:40:19.082Z,1.36
2023-07-14T15:41:58.878Z,1.51
2023-07-14T15:43:38.730Z,1.5
2023-07-14T15:45:18.419Z,1.5
2023-07-14T15:46:58.161Z,1.37
2023-07-14T15:48:37.922Z,1.36
2023-07-14T15:50:17.675Z,1.51
2023-07-14T15:51:57.448Z,1.36
2023-07-14T15:55:16.973Z,1.37
2023-07-14T15:56:56.736Z,1.37
2023-07-14T15:58:36.502Z,1.37
2023-07-14T16:00:16.306Z,1.23
2023-07-14T16:01:56.036Z,1.37
2023-07-14T16:03:35.797Z,1.65
2023-07-14T16:05:15.573Z,1.09
2023-07-14T16:06:55.349Z,1.78
2023-07-14T16:08:35.093Z,1.38
2023-07-14T16:10:14.845Z,1.23
2023-07-14T16:11:54.610Z,1.37
2023-07-14T16:15:14.139Z,1.36
2023-07-14T16:16:53.931Z,1.23
2023-07-14T16:18:33.682Z,1.37
2023-07-14T16:20:13.447Z,1.5
2023-07-14T16:21:53.230Z,1.52
2023-07-14T16:23:32.979Z,1.51
2023-07-14T16:25:12.735Z,1.23
2023-07-14T16:26:52.503Z,1.23
2023-07-14T16:28:32.249Z,1.09
2023-07-14T16:30:12.036Z,1.37
2023-07-14T16:31:51.794Z,1.23
2023-07-14T16:35:11.312Z,1.23
2023-07-14T16:36:51.089Z,1.23
2023-07-14T16:38:30.852Z,1.23
2023-07-14T16:40:10.616Z,1.37
2023-07-14T16:41:50.369Z,1.37
2023-07-14T16:43:30.132Z,1.24
2023-07-14T16:45:09.883Z,1.37
2023-07-14T16:46:49.661Z,1.51
2023-07-14T16:48:29.425Z,1.23
2023-07-14T16:50:09.199Z,1.1
2023-07-14T16:51:49.000Z,1.09
2023-07-14T16:53:28.718Z,0.95
2023-07-14T16:55:08.502Z,1.37
2023-07-14T16:56:48.246Z,1.23
2023-07-14T16:58:28.028Z,0.95
2023-07-14T17:00:07.776Z,0.95
2023-07-14T17:01:47.552Z,1.51
2023-07-14T17:05:07.086Z,1.09
2023-07-14T17:06:46.845Z,1.09
2023-07-14T17:08:26.755Z,1.1
2023-07-14T17:10:06.372Z,1.23
2023-07-14T17:11:46.131Z,1.37
2023-07-14T17:13:25.912Z,1.37
2023-07-14T17:15:05.796Z,1.09
2023-07-14T17:16:45.420Z,1.23
2023-07-14T17:18:25.201Z,1.52
2023-07-14T17:20:04.966Z,1.37
2023-07-14T17:21:44.726Z,1.24
2023-07-14T17:23:24.490Z,1.23
2023-07-14T17:25:04.287Z,1.23
2023-07-14T17:26:44.030Z,1.23
2023-07-14T17:28:23.796Z,1.23
2023-07-14T17:30:03.565Z,1.23
2023-07-14T17:31:43.315Z,1.09
2023-07-14T17:35:02.862Z,1.23
2023-07-14T17:36:42.608Z,1.23
2023-07-14T17:38:22.371Z,1.23
2023-07-14T17:40:02.196Z,1.24
2023-07-14T17:41:41.888Z,1.23
2023-07-14T17:43:21.667Z,1.23
2023-07-14T17:45:01.424Z,1.23
2023-07-14T17:46:41.182Z,1.09
2023-07-14T17:48:20.972Z,1.09
2023-07-14T17:50:00.718Z,1.23
2023-07-14T17:51:40.481Z,1.09
2023-07-14T17:55:00.023Z,1.23
2023-07-14T17:56:39.765Z,1.23
2023-07-14T17:58:19.551Z,1.23
2023-07-14T17:59:59.310Z,1.37
2023-07-14T18:01:39.077Z,1.23
2023-07-14T18:04:58.678Z,1.23
2023-07-14T18:06:38.354Z,1.38
2023-07-14T18:08:18.172Z,1.23
2023-07-14T18:09:57.890Z,1.23
2023-07-14T18:11:37.663Z,1.23
2023-07-14T18:14:57.191Z,1.09
2023-07-14T18:16:36.943Z,1.23
2023-07-14T18:18:16.700Z,1.23
2023-07-14T18:19:56.491Z,1.09
2023-07-14T18:21:36.236Z,1.23
2023-07-14T18:23:16.023Z,1.23
2023-07-14T18:24:55.775Z,1.09
2023-07-14T18:26:35.547Z,1.23
2023-07-14T18:28:15.294Z,1.23
2023-07-14T18:29:55.061Z,1.09
2023-07-14T18:31:34.828Z,1.23
2023-07-14T18:34:54.373Z,1.1
2023-07-14T18:36:34.107Z,1.09
2023-07-14T18:38:13.928Z,1.1
2023-07-14T18:39:53.654Z,1.1
2023-07-14T18:41:33.420Z,1.24
2023-07-14T18:44:52.956Z,1.23
2023-07-14T18:46:32.706Z,1.23
2023-07-14T18:48:12.466Z,1.09
2023-07-14T18:49:52.247Z,1.23
2023-07-14T18:51:32.030Z,1.24
2023-07-14T18:54:51.537Z,1.09
2023-07-14T18:56:31.278Z,1.23
2023-07-14T18:58:11.065Z,1.23
2023-07-14T18:59:50.812Z,1.1
2023-07-14T19:01:30.581Z,0.81
2023-07-14T19:04:50.111Z,0.52
2023-07-14T19:06:29.877Z,0.4
2023-07-14T19:08:09.633Z,0.66
2023-07-14T19:09:49.408Z,0.39
2023-07-14T19:11:29.166Z,0
2023-07-14T19:14:48.704Z,0
2023-07-14T19:16:28.500Z,0
2023-07-14T19:18:08.226Z,0
2023-07-14T19:19:48.025Z,0
2023-07-14T19:21:27.755Z,0
2023-07-14T19:24:47.274Z,0
2023-07-14T19:26:27.045Z,0
2023-07-14T19:28:06.813Z,0
2023-07-14T19:29:46.580Z,0
2023-07-14T19:31:26.344Z,0
2023-07-14T19:34:45.870Z,0
2023-07-14T19:36:25.646Z,0
2023-07-14T19:38:05.437Z,0
2023-07-14T19:39:45.155Z,0
2023-07-14T19:41:24.930Z,0
2023-07-14T19:44:44.462Z,0
2023-07-14T19:46:24.224Z,0
2023-07-14T19:48:03.990Z,0
2023-07-14T19:49:43.750Z,0
2023-07-14T19:51:23.543Z,0
2023-07-14T19:53:03.275Z,0
2023-07-14T19:54:43.064Z,0
2023-07-14T19:56:22.812Z,0
2023-07-14T19:58:02.571Z,0
2023-07-14T20:01:22.099Z,0
2023-07-14T20:03:01.862Z,0
2023-07-14T20:04:41.618Z,0
2023-07-14T20:06:21.393Z,0
2023-07-14T20:08:01.171Z,0
2023-07-14T20:09:40.929Z,0
2023-07-14T20:11:20.712Z,0
2023-07-14T20:13:00.540Z,0
2023-07-14T20:14:40.194Z,0
2023-07-14T20:16:19.981Z,0
2023-07-14T20:17:59.722Z,0
2023-07-14T20:19:39.512Z,0
2023-07-14T20:21:19.283Z,0
2023-07-14T20:22:59.024Z,0
2023-07-14T20:24:38.802Z,0
2023-07-14T20:26:18.553Z,0
2023-07-14T20:27:58.315Z,0
2023-07-14T20:29:38.077Z,0
2023-07-14T20:31:17.833Z,0
2023-07-14T20:34:37.373Z,0
2023-07-14T20:36:17.125Z,0
2023-07-14T20:37:56.903Z,0
2023-07-14T20:39:36.666Z,0
2023-07-14T20:41:16.437Z,0
2023-07-14T20:42:56.210Z,0
2023-07-14T20:44:35.950Z,0
2023-07-14T20:46:15.719Z,0
2023-07-14T20:47:55.496Z,0
2023-07-14T20:49:35.244Z,0
2023-07-14T20:51:15.029Z,0
2023-07-14T20:52:54.795Z,0
2023-07-14T20:54:34.550Z,0
2023-07-14T20:56:14.314Z,0
2023-07-14T20:57:54.092Z,0
2023-07-14T20:59:33.833Z,0
2023-07-14T21:01:13.600Z,0
2023-07-14T21:02:53.367Z,0
2023-07-14T21:04:33.119Z,0
2023-07-14T21:06:12.895Z,0
2023-07-14T21:07:52.644Z,0
2023-07-14T21:09:32.410Z,0
2023-07-14T21:11:12.193Z,0
2023-07-14T21:12:51.957Z,0
2023-07-14T21:14:31.723Z,0
2023-07-14T21:16:11.474Z,0
2023-07-14T21:17:51.243Z,0
2023-07-14T21:19:31.023Z,0
2023-07-14T21:21:10.778Z,0
2023-07-14T21:22:50.541Z,0
2023-07-14T21:24:30.298Z,0
2023-07-14T21:26:10.070Z,0
2023-07-14T21:27:49.878Z,0
2023-07-14T21:29:29.597Z,0
2023-07-14T21:31:09.345Z,0
2023-07-14T21:32:49.129Z,0
2023-07-14T21:34:28.889Z,0
2023-07-14T21:36:08.635Z,0
2023-07-14T21:37:48.414Z,0
2023-07-14T21:39:28.188Z,0
2023-07-14T21:41:07.924Z,0
2023-07-14T21:42:47.726Z,0
2023-07-14T21:44:27.454Z,0
2023-07-14T21:46:07.231Z,0
2023-07-14T21:47:47.012Z,0
2023-07-14T21:49:26.769Z,0
2023-07-14T21:51:06.532Z,0
2023-07-14T21:52:46.307Z,0
2023-07-14T21:54:26.041Z,0
2023-07-14T21:56:05.809Z,0
2023-07-14T21:57:45.590Z,0
2023-07-14T21:59:25.342Z,0
2023-07-14T22:01:05.101Z,0
2023-07-14T22:02:44.887Z,0
2023-07-14T22:04:24.640Z,0
2023-07-14T22:06:04.418Z,0
2023-07-14T22:07:44.173Z,0
2023-07-14T22:09:23.919Z,0
2023-07-14T22:11:03.695Z,0
2023-07-14T22:12:43.472Z,0
2023-07-14T22:14:23.213Z,0
2023-07-14T22:16:02.981Z,0
2023-07-14T22:17:42.740Z,0
2023-07-14T22:19:22.527Z,0
2023-07-14T22:21:02.304Z,0
2023-07-14T22:22:42.072Z,0
2023-07-14T22:24:21.873Z,0
2023-07-14T22:26:01.554Z,0
2023-07-14T22:27:41.329Z,0
2023-07-14T22:29:21.121Z,0
2023-07-14T22:31:00.857Z,0
2023-07-14T22:32:40.642Z,0
2023-07-14T22:34:20.392Z,0
2023-07-14T22:36:00.142Z,0
2023-07-14T22:37:39.916Z,0
2023-07-14T22:39:19.689Z,0
2023-07-14T22:40:59.457Z,0
2023-07-14T22:42:39.229Z,0
2023-07-14T22:44:18.957Z,0
2023-07-14T22:45:58.727Z,0
2023-07-14T22:47:38.507Z,0
2023-07-14T22:49:18.280Z,0
2023-07-14T22:50:58.027Z,0
2023-07-14T22:52:37.817Z,0
2023-07-14T22:54:17.576Z,0
2023-07-14T22:55:57.310Z,0
2023-07-14T22:57:37.096Z,0
2023-07-14T22:59:16.853Z,0
2023-07-14T23:00:56.623Z,0
2023-07-14T23:02:36.415Z,0
2023-07-14T23:04:16.140Z,0
2023-07-14T23:05:55.904Z,0
2023-07-14T23:07:35.668Z,0
2023-07-14T23:09:15.427Z,0
2023-07-14T23:10:55.186Z,0
2023-07-14T23:12:34.979Z,0
2023-07-14T23:14:14.739Z,0
2023-07-14T23:15:54.510Z,0
2023-07-14T23:17:34.244Z,0
2023-07-14T23:19:14.009Z,0
2023-07-14T23:20:53.769Z,0
2023-07-14T23:22:33.554Z,0
2023-07-14T23:24:13.311Z,0
2023-07-14T23:25:53.098Z,0
2023-07-14T23:27:32.829Z,0
2023-07-14T23:29:12.591Z,0
2023-07-14T23:30:52.369Z,0
2023-07-14T23:32:32.136Z,0
2023-07-14T23:34:11.892Z,0
2023-07-14T23:35:51.657Z,0
2023-07-14T23:37:31.420Z,0
2023-07-14T23:39:11.178Z,0
2023-07-14T23:40:50.955Z,0
2023-07-14T23:42:30.715Z,0
2023-07-14T23:44:10.461Z,0
2023-07-14T23:45:50.243Z,0
2023-07-14T23:47:30.052Z,0
2023-07-14T23:49:09.815Z,0
2023-07-14T23:50:49.525Z,0
2023-07-14T23:52:29.320Z,0
2023-07-14T23:54:09.047Z,0
2023-07-14T23:55:48.825Z,0
2023-07-14T23:57:28.581Z,0
2023-07-14T23:59:08.358Z,0
